Time;durP1;ratioP1;P1;durP2;ratioP2;P2;SDS_P1;SDS_P2;PMS_P1;PMS_P2;Temp;Humidity;BMP_temperature;BMP_pressure;BME280_temperature;BME280_humidity;BME280_pressure;Samples;Min_cycle;Max_cycle;Signal;HPM_P1;HPM_P2
2021/09/24 00:00:08;;;;;;;13.50;6.00;;;;;;;13.33;63.28;97889.21;113211;1196;97595;-74
2021/09/24 00:02:57;;;;;;;16.00;5.60;;;;;;;13.34;63.34;97906.62;113026;1196;113931;-72
2021/09/24 00:05:30;;;;;;;13.20;5.50;;;;;;;13.35;63.29;97913.63;113168;1196;95145;-72
2021/09/24 00:07:57;;;;;;;13.50;5.50;;;;;;;13.35;63.39;97923.71;113180;1197;107567;-70
2021/09/24 00:10:25;;;;;;;11.90;5.80;;;;;;;13.36;63.43;97912.27;113193;1195;97562;-72
2021/09/24 00:12:53;;;;;;;15.80;5.80;;;;;;;13.36;63.46;97907.43;113163;1195;97585;-72
2021/09/24 00:15:21;;;;;;;14.60;5.90;;;;;;;13.36;63.50;97906.73;113187;1195;111167;-70
2021/09/24 00:17:49;;;;;;;15.90;6.30;;;;;;;13.36;63.46;97912.23;113150;1195;97378;-71
2021/09/24 00:20:19;;;;;;;14.30;5.80;;;;;;;13.37;63.53;97914.14;113207;1195;108589;-71
2021/09/24 00:22:48;;;;;;;14.20;5.80;;;;;;;13.37;63.48;97921.20;113154;1195;95160;-71
2021/09/24 00:25:16;;;;;;;11.40;5.50;;;;;;;13.36;63.53;97914.00;113177;1195;95160;-71
2021/09/24 00:27:44;;;;;;;13.90;5.80;;;;;;;13.36;63.53;97927.79;113083;1196;110353;-69
2021/09/24 00:30:14;;;;;;;15.30;6.00;;;;;;;13.34;63.69;97922.11;113258;1195;97623;-72
2021/09/24 00:32:43;;;;;;;15.30;6.20;;;;;;;13.32;63.69;97928.88;113314;1195;108682;-72
2021/09/24 00:35:13;;;;;;;15.00;5.90;;;;;;;13.32;63.62;97920.69;113305;1195;97642;-70
2021/09/24 00:37:41;;;;;;;15.40;5.80;;;;;;;13.28;63.60;97913.44;113317;1195;94944;-71
2021/09/24 00:40:11;;;;;;;16.10;6.20;;;;;;;13.25;63.75;97906.83;113251;1195;111232;-71
2021/09/24 00:42:39;;;;;;;14.40;6.10;;;;;;;13.19;63.80;97910.63;113201;1197;98237;-70
2021/09/24 00:45:10;;;;;;;11.40;5.70;;;;;;;13.13;63.91;97904.65;113149;1195;106728;-70
2021/09/24 00:47:40;;;;;;;14.10;6.00;;;;;;;13.07;64.01;97893.86;113186;1196;97749;-70
2021/09/24 00:50:10;;;;;;;16.30;6.40;;;;;;;13.02;64.12;97892.97;113176;1195;97643;-70
2021/09/24 00:52:38;;;;;;;15.30;6.80;;;;;;;12.97;64.31;97894.73;113198;1195;111357;-70
2021/09/24 00:55:06;;;;;;;15.20;6.10;;;;;;;12.92;64.31;97893.02;113202;1196;97665;-70
2021/09/24 00:57:36;;;;;;;14.50;5.80;;;;;;;12.89;64.52;97890.67;113146;1196;107557;-71
2021/09/24 01:00:07;;;;;;;15.50;6.40;;;;;;;12.86;64.57;97892.61;113159;1195;97227;-71
2021/09/24 01:02:35;;;;;;;12.10;6.30;;;;;;;12.82;64.98;97896.95;113177;1195;97570;-71
2021/09/24 01:05:09;;;;;;;15.90;7.20;;;;;;;12.74;64.85;97902.30;113067;1195;110828;-71
2021/09/24 01:07:43;;;;;;;14.40;5.90;;;;;;;12.71;65.04;97900.84;113143;1195;97525;-71
2021/09/24 01:10:15;;;;;;;17.30;6.40;;;;;;;12.66;65.24;97904.20;113102;1195;107559;-71
2021/09/24 01:12:45;;;;;;;13.30;6.20;;;;;;;12.61;65.43;97903.94;113051;1196;97496;-71
2021/09/24 01:15:18;;;;;;;16.70;7.40;;;;;;;12.57;65.50;97905.98;113181;1195;97658;-72
2021/09/24 01:17:48;;;;;;;15.60;6.50;;;;;;;12.52;65.61;97914.08;113147;1196;111026;-71
2021/09/24 01:20:23;;;;;;;16.30;7.00;;;;;;;12.48;65.71;97912.51;113151;1196;97670;-72
2021/09/24 01:22:53;;;;;;;15.40;7.20;;;;;;;12.45;65.98;97906.54;113201;1196;107248;-71
2021/09/24 01:25:24;;;;;;;14.00;6.30;;;;;;;12.42;66.10;97907.83;113219;1196;97693;-71
2021/09/24 01:27:55;;;;;;;16.80;6.70;;;;;;;12.36;66.07;97902.27;113173;1195;95072;-70
2021/09/24 01:30:25;;;;;;;15.90;6.60;;;;;;;12.33;66.19;97907.40;113219;1195;111209;-74
2021/09/24 01:32:53;;;;;;;16.30;7.00;;;;;;;12.30;66.38;97910.93;113215;1195;95048;-73
2021/09/24 01:35:23;;;;;;;15.30;6.90;;;;;;;12.25;66.61;97908.52;113195;1195;105806;-72
2021/09/24 01:37:51;;;;;;;17.70;7.20;;;;;;;12.21;66.71;97901.52;113202;1196;98278;-72
2021/09/24 01:40:21;;;;;;;15.30;6.80;;;;;;;12.18;66.76;97897.52;113195;1196;97661;-71
2021/09/24 01:42:55;;;;;;;15.80;7.70;;;;;;;12.16;67.13;97892.98;113193;1195;111205;-72
2021/09/24 01:45:23;;;;;;;16.20;7.40;;;;;;;12.13;67.16;97888.92;113154;1195;97653;-72
2021/09/24 01:47:52;;;;;;;17.90;7.10;;;;;;;12.12;67.18;97885.32;112988;1197;107517;-70
2021/09/24 01:50:23;;;;;;;15.30;7.00;;;;;;;12.11;67.36;97878.31;113086;1195;95072;-70
2021/09/24 01:52:51;;;;;;;18.50;7.60;;;;;;;12.10;67.49;97872.03;113194;1195;97663;-71
2021/09/24 01:55:19;;;;;;;16.60;7.00;;;;;;;12.09;67.60;97871.36;113203;1195;111223;-71
2021/09/24 01:57:47;;;;;;;18.50;7.40;;;;;;;12.08;67.73;97865.09;113176;1195;96017;-70
2021/09/24 02:00:17;;;;;;;17.70;7.00;;;;;;;12.08;67.76;97866.89;113173;1195;107625;-71
2021/09/24 02:02:45;;;;;;;16.30;7.00;;;;;;;12.08;68.16;97859.95;113202;1196;94954;-69
2021/09/24 02:05:15;;;;;;;15.40;6.90;;;;;;;12.06;68.30;97859.06;113205;1195;97636;-70
2021/09/24 02:07:44;;;;;;;16.60;7.00;;;;;;;12.05;68.88;97853.80;113168;1195;110161;-70
2021/09/24 02:10:12;;;;;;;18.80;7.20;;;;;;;12.03;68.74;97846.59;113255;1195;95744;-70
2021/09/24 02:12:42;;;;;;;15.30;7.00;;;;;;;12.01;68.92;97848.84;113025;1196;107627;-70
2021/09/24 02:15:12;;;;;;;18.60;7.40;;;;;;;12.00;68.89;97842.39;113180;1196;97616;-70
2021/09/24 02:17:43;;;;;;;15.80;6.80;;;;;;;12.01;69.07;97841.27;113200;1196;97649;-70
2021/09/24 02:20:13;;;;;;;16.80;6.80;;;;;;;12.02;69.27;97836.56;113108;1196;112299;-68
2021/09/24 02:22:41;;;;;;;16.60;6.50;;;;;;;12.04;69.44;97824.07;113160;1195;97555;-72
2021/09/24 02:25:09;;;;;;;15.10;7.20;;;;;;;12.07;69.66;97832.65;113213;1196;107523;-70
2021/09/24 02:27:39;;;;;;;14.40;6.40;;;;;;;12.09;69.65;97827.99;113160;1195;97537;-71
2021/09/24 02:30:07;;;;;;;15.60;6.80;;;;;;;12.12;69.92;97822.52;113182;1197;97634;-71
2021/09/24 02:32:35;;;;;;;17.20;6.80;;;;;;;12.14;69.89;97818.47;113220;1195;110937;-71
2021/09/24 02:35:06;;;;;;;14.70;6.80;;;;;;;12.16;69.80;97815.94;113214;1195;97551;-71
2021/09/24 02:37:36;;;;;;;17.00;7.20;;;;;;;12.18;69.99;97816.12;113157;1195;107480;-70
2021/09/24 02:40:10;;;;;;;15.70;6.30;;;;;;;12.20;70.27;97819.57;113124;1195;97718;-69
2021/09/24 02:42:38;;;;;;;15.20;6.60;;;;;;;12.24;70.32;97819.42;113190;1195;95132;-70
2021/09/24 02:45:06;;;;;;;15.10;7.30;;;;;;;12.26;70.52;97825.08;113127;1197;111118;-71
2021/09/24 02:47:34;;;;;;;15.60;6.70;;;;;;;12.29;70.67;97840.10;113120;1195;95054;-72
2021/09/24 02:50:04;;;;;;;18.30;7.10;;;;;;;12.32;71.00;97838.23;113229;1195;107569;-72
2021/09/24 02:52:32;;;;;;;15.30;6.20;;;;;;;12.35;70.97;97843.06;113404;1196;96996;-70
2021/09/24 02:55:02;;;;;;;20.10;7.00;;;;;;;12.40;71.23;97850.41;113150;1196;95472;-70
2021/09/24 02:57:30;;;;;;;14.00;6.20;;;;;;;12.44;71.19;97860.33;113203;1196;111185;-72
2021/09/24 02:59:58;;;;;;;15.60;6.20;;;;;;;12.46;71.14;97871.26;113149;1196;97684;-71
2021/09/24 03:02:25;;;;;;;16.80;6.90;;;;;;;12.50;71.44;97895.55;113208;1195;107287;-70
2021/09/24 03:04:54;;;;;;;14.90;6.40;;;;;;;12.56;71.51;97898.08;113143;1196;97572;-70
2021/09/24 03:07:24;;;;;;;14.00;5.70;;;;;;;12.61;72.04;97928.70;113207;1195;97593;-69
2021/09/24 03:09:52;;;;;;;15.70;5.80;;;;;;;12.66;72.61;97939.36;113216;1195;110976;-69
2021/09/24 03:12:20;;;;;;;12.60;4.80;;;;;;;12.71;72.64;97925.55;113173;1196;98027;-71
2021/09/24 03:14:47;;;;;;;14.40;5.60;;;;;;;12.70;72.07;97922.98;113047;1196;108123;-69
2021/09/24 03:17:16;;;;;;;12.80;4.80;;;;;;;12.69;72.10;97918.16;113150;1196;97578;-70
2021/09/24 03:19:46;;;;;;;10.10;5.00;;;;;;;12.67;71.96;97914.20;113210;1196;96711;-70
2021/09/24 03:22:14;;;;;;;10.30;4.10;;;;;;;12.66;72.61;97909.80;113162;1196;111296;-70
2021/09/24 03:24:41;;;;;;;11.10;4.80;;;;;;;12.68;73.03;97919.32;113203;1195;97590;-71
2021/09/24 03:27:09;;;;;;;9.70;4.30;;;;;;;12.67;72.92;97928.05;113129;1196;108815;-70
2021/09/24 03:29:37;;;;;;;12.10;5.00;;;;;;;12.66;72.60;97931.00;113170;1195;97658;-70
2021/09/24 03:32:07;;;;;;;11.10;4.60;;;;;;;12.67;72.60;97925.91;113232;1197;97627;-71
2021/09/24 03:34:37;;;;;;;9.50;4.60;;;;;;;12.66;72.77;97934.61;113165;1196;110712;-71
2021/09/24 03:37:05;;;;;;;9.20;4.30;;;;;;;12.64;72.80;97928.92;113223;1195;95077;-70
2021/09/24 03:39:33;;;;;;;13.10;4.60;;;;;;;12.63;72.24;97923.52;113131;1195;107538;-69
2021/09/24 03:42:04;;;;;;;9.70;4.10;;;;;;;12.62;72.55;97925.38;113139;1195;97616;-70
2021/09/24 03:44:34;;;;;;;9.70;3.80;;;;;;;12.61;72.10;97927.81;113168;1196;96897;-70
2021/09/24 03:47:04;;;;;;;9.20;3.70;;;;;;;12.59;72.46;97923.55;113194;1195;111059;-69
2021/09/24 03:49:32;;;;;;;12.40;3.20;;;;;;;12.57;72.27;97930.64;113188;1196;97574;-70
2021/09/24 03:52:02;;;;;;;13.10;3.60;;;;;;;12.56;72.67;97929.73;113112;1196;107782;-69
2021/09/24 03:54:32;;;;;;;10.90;4.00;;;;;;;12.54;72.20;97928.51;113101;1196;96070;-70
2021/09/24 03:57:00;;;;;;;9.10;3.60;;;;;;;12.51;72.22;97937.11;113162;1195;95003;-71
2021/09/24 03:59:28;;;;;;;8.60;3.30;;;;;;;12.48;72.16;97937.95;113185;1196;110820;-70
2021/09/24 04:01:56;;;;;;;6.10;2.60;;;;;;;12.46;72.32;97937.65;113143;1196;97665;-70
2021/09/24 04:04:24;;;;;;;9.00;3.60;;;;;;;12.43;72.52;97941.09;112881;1196;107631;-70
2021/09/24 04:06:52;;;;;;;8.20;3.00;;;;;;;12.40;72.33;97942.64;113041;1196;97677;-68
2021/09/24 04:09:22;;;;;;;6.20;3.00;;;;;;;12.39;72.50;97945.79;113085;1195;97692;-69
2021/09/24 04:11:49;;;;;;;12.70;3.00;;;;;;;12.38;72.68;97957.48;113093;1190;111328;-72
2021/09/24 04:14:17;;;;;;;7.60;2.80;;;;;;;12.36;72.34;97953.67;113014;1196;95702;-72
2021/09/24 04:16:45;;;;;;;8.30;2.80;;;;;;;12.36;72.55;97955.33;112978;1196;107510;-72
2021/09/24 04:19:13;;;;;;;8.10;2.50;;;;;;;12.36;72.50;97964.20;113085;1196;97572;-70
2021/09/24 04:21:42;;;;;;;7.90;2.50;;;;;;;12.37;72.49;97965.37;112813;1196;97539;-72
2021/09/24 04:24:10;;;;;;;8.70;2.70;;;;;;;12.37;72.56;97966.21;112661;1196;111300;-72
2021/09/24 04:26:37;;;;;;;8.00;2.60;;;;;;;12.37;72.54;97967.46;112934;1196;95738;-73
2021/09/24 04:29:07;;;;;;;8.10;2.50;;;;;;;12.38;72.53;97972.90;112898;1196;107600;-72
2021/09/24 04:31:36;;;;;;;9.50;2.90;;;;;;;12.38;72.63;97972.85;112690;1196;97595;-72
2021/09/24 04:34:08;;;;;;;8.20;2.40;;;;;;;12.38;72.41;97972.94;112903;1196;97609;-71
2021/09/24 04:36:37;;;;;;;6.40;2.50;;;;;;;12.38;72.57;97973.98;113055;1195;111160;-73
2021/09/24 04:39:07;;;;;;;7.70;2.60;;;;;;;12.39;72.44;97985.28;113047;1196;97572;-72
2021/09/24 04:41:34;;;;;;;13.00;2.90;;;;;;;12.40;72.57;97991.06;113010;1196;108789;-72
2021/09/24 04:44:05;;;;;;;9.10;2.70;;;;;;;12.41;72.81;97992.19;112975;1196;98037;-73
2021/09/24 04:46:32;;;;;;;12.40;2.80;;;;;;;12.42;72.49;97994.42;112912;1196;97663;-74
2021/09/24 04:49:04;;;;;;;10.60;2.80;;;;;;;12.43;72.66;97999.94;113186;1196;111186;-73
2021/09/24 04:51:32;;;;;;;4.40;2.10;;;;;;;12.43;72.46;97993.86;113148;1195;97609;-71
2021/09/24 04:54:00;;;;;;;9.20;2.30;;;;;;;12.44;72.48;97997.01;113145;1195;107563;-72
2021/09/24 04:56:28;;;;;;;8.70;2.30;;;;;;;12.44;72.83;98004.84;113156;1195;97668;-72
2021/09/24 04:58:58;;;;;;;9.90;2.60;;;;;;;12.43;72.58;98003.33;113142;1196;95080;-72
2021/09/24 05:01:26;;;;;;;8.80;2.60;;;;;;;12.43;72.56;98007.96;112814;1196;111268;-74
2021/09/24 05:03:54;;;;;;;11.40;2.50;;;;;;;12.42;72.51;98003.06;112893;1196;97604;-73
2021/09/24 05:06:23;;;;;;;12.20;3.20;;;;;;;12.41;72.54;98011.39;113224;1189;107547;-72
2021/09/24 05:08:54;;;;;;;6.20;2.30;;;;;;;12.40;72.52;98012.30;113013;1196;98290;-72
2021/09/24 05:11:22;;;;;;;12.10;2.80;;;;;;;12.39;72.56;98024.13;113272;1195;97575;-71
2021/09/24 05:13:50;;;;;;;8.80;2.80;;;;;;;12.39;72.58;98029.21;113160;1195;111349;-72
2021/09/24 05:16:19;;;;;;;8.50;2.50;;;;;;;12.37;72.58;98028.84;113060;1195;97641;-71
2021/09/24 05:18:47;;;;;;;11.00;3.00;;;;;;;12.35;72.45;98027.68;113160;1195;107513;-71
2021/09/24 05:21:15;;;;;;;6.10;2.30;;;;;;;12.35;72.34;98033.23;113169;1195;97695;-71
2021/09/24 05:23:45;;;;;;;6.50;2.10;;;;;;;12.34;72.45;98025.50;113218;1195;97565;-70
2021/09/24 05:26:15;;;;;;;12.20;3.00;;;;;;;12.31;72.77;98038.40;113197;1195;110985;-71
2021/09/24 05:28:45;;;;;;;10.20;2.50;;;;;;;12.30;72.63;98039.05;113169;1196;96778;-71
2021/09/24 05:31:15;;;;;;;8.30;2.30;;;;;;;12.30;72.55;98042.11;113161;1195;108508;-71
2021/09/24 05:33:42;;;;;;;9.30;2.60;;;;;;;12.29;72.48;98038.60;113199;1195;97640;-71
2021/09/24 05:36:11;;;;;;;10.10;2.50;;;;;;;12.30;72.36;98039.42;113047;1195;97572;-71
2021/09/24 05:38:40;;;;;;;14.00;2.60;;;;;;;12.32;72.36;98046.04;113158;1195;111589;-71
2021/09/24 05:41:08;;;;;;;13.50;2.60;;;;;;;12.33;72.41;98052.98;113073;1196;97795;-71
2021/09/24 05:43:39;;;;;;;10.20;2.80;;;;;;;12.34;72.46;98055.88;113111;1196;107434;-72
2021/09/24 05:46:10;;;;;;;9.70;2.30;;;;;;;12.35;72.38;98061.68;112928;1196;97747;-71
2021/09/24 05:48:39;;;;;;;10.30;2.60;;;;;;;12.34;72.35;98057.14;113226;1196;95124;-72
2021/09/24 05:51:07;;;;;;;11.40;2.20;;;;;;;12.36;72.29;98065.02;113108;1195;111203;-72
2021/09/24 05:53:37;;;;;;;9.40;2.60;;;;;;;12.37;72.43;98070.97;113175;1195;97624;-72
2021/09/24 05:56:07;;;;;;;11.00;2.20;;;;;;;12.37;72.36;98065.44;113183;1195;107547;-72
2021/09/24 05:58:35;;;;;;;11.60;2.80;;;;;;;12.39;72.34;98065.98;113171;1197;97569;-72
2021/09/24 06:01:03;;;;;;;9.50;2.40;;;;;;;12.39;72.28;98080.90;113242;1195;97576;-72
2021/09/24 06:03:34;;;;;;;9.60;2.30;;;;;;;12.39;72.21;98071.44;112980;1195;110833;-72
2021/09/24 06:06:03;;;;;;;8.80;2.30;;;;;;;12.40;72.01;98078.17;113232;1195;97529;-71
2021/09/24 06:08:31;;;;;;;17.20;2.90;;;;;;;12.40;72.08;98072.63;112822;1196;107720;-72
2021/09/24 06:10:59;;;;;;;13.30;3.40;;;;;;;12.41;72.11;98079.42;113210;1195;97540;-73
2021/09/24 06:13:27;;;;;;;10.40;2.40;;;;;;;12.42;72.12;98077.54;113180;1197;97628;-72
2021/09/24 06:15:57;;;;;;;7.60;2.00;;;;;;;12.44;72.10;98075.96;113183;1195;111235;-72
2021/09/24 06:18:29;;;;;;;15.60;2.70;;;;;;;12.46;71.87;98078.47;113213;1195;97641;-73
2021/09/24 06:20:59;;;;;;;12.70;3.00;;;;;;;12.46;72.01;98088.40;113171;1196;107505;-73
2021/09/24 06:23:26;;;;;;;8.00;2.00;;;;;;;12.46;72.06;98092.48;113145;1196;97556;-74
2021/09/24 06:25:58;;;;;;;14.40;2.50;;;;;;;12.47;71.94;98090.08;112950;1196;97754;-75
2021/09/24 06:28:28;;;;;;;15.60;3.70;;;;;;;12.47;71.86;98094.55;113163;1195;110243;-73
2021/09/24 06:30:58;;;;;;;16.70;3.20;;;;;;;12.45;71.79;98096.27;112971;1196;97662;-73
2021/09/24 06:33:26;;;;;;;11.50;2.50;;;;;;;12.44;71.61;98096.25;113200;1197;107522;-74
2021/09/24 06:35:54;;;;;;;12.40;2.60;;;;;;;12.43;71.49;98094.95;113209;1195;97536;-74
2021/09/24 06:38:22;;;;;;;14.80;2.90;;;;;;;12.43;71.69;98100.70;113261;1197;98337;-73
2021/09/24 06:40:50;;;;;;;17.10;3.10;;;;;;;12.46;71.74;98103.85;113186;1196;110192;-72
2021/09/24 06:43:17;;;;;;;15.00;2.40;;;;;;;12.52;71.37;98114.34;113230;1196;95171;-71
2021/09/24 06:45:45;;;;;;;11.30;2.70;;;;;;;12.53;71.44;98111.53;113163;1196;107515;-72
2021/09/24 06:48:13;;;;;;;13.60;2.90;;;;;;;12.58;71.49;98116.80;112967;1196;98269;-72
2021/09/24 06:50:43;;;;;;;16.30;3.20;;;;;;;12.60;71.41;98122.95;113213;1195;96144;-71
2021/09/24 06:53:11;;;;;;;12.30;2.60;;;;;;;12.61;71.26;98123.43;113334;1195;111174;-73
2021/09/24 06:55:39;;;;;;;11.50;3.10;;;;;;;12.62;71.44;98131.46;113234;1195;97653;-72
2021/09/24 06:58:08;;;;;;;15.00;3.10;;;;;;;12.66;71.06;98138.94;113198;1195;107538;-72
2021/09/24 07:00:38;;;;;;;13.50;2.90;;;;;;;12.67;70.68;98137.07;113153;1196;98473;-72
2021/09/24 07:03:06;;;;;;;15.80;3.30;;;;;;;12.72;70.93;98139.78;113171;1196;95277;-72
2021/09/24 07:05:36;;;;;;;15.60;2.60;;;;;;;12.80;71.03;98142.81;113198;1196;111198;-72
2021/09/24 07:08:04;;;;;;;12.00;2.70;;;;;;;12.88;70.89;98143.06;113073;1195;97606;-69
2021/09/24 07:10:32;;;;;;;11.00;3.10;;;;;;;12.94;70.87;98148.65;113398;1195;106534;-74
2021/09/24 07:13:02;;;;;;;12.30;2.80;;;;;;;13.02;70.60;98152.99;113145;1195;97572;-72
2021/09/24 07:15:30;;;;;;;14.10;2.80;;;;;;;13.09;70.98;98149.23;113198;1195;95001;-73
2021/09/24 07:17:58;;;;;;;13.90;3.40;;;;;;;13.17;70.73;98151.33;113118;1195;111226;-72
2021/09/24 07:20:28;;;;;;;9.10;2.30;;;;;;;13.21;70.32;98151.07;113075;1195;97563;-72
2021/09/24 07:23:17;;;;;;;11.30;2.30;;;;;;;13.30;70.73;98158.66;113125;1195;107232;-72
2021/09/24 07:25:45;;;;;;;11.40;2.30;;;;;;;13.37;70.01;98166.81;113107;1196;97703;-72
2021/09/24 07:28:13;;;;;;;13.60;2.80;;;;;;;13.39;70.43;98164.77;113103;1196;97695;-72
2021/09/24 07:30:41;;;;;;;8.30;2.10;;;;;;;13.43;70.07;98164.79;113165;1196;110820;-72
2021/09/24 07:33:09;;;;;;;9.90;2.30;;;;;;;13.56;69.80;98162.86;113184;1195;98296;-71
2021/09/24 07:35:37;;;;;;;13.50;2.60;;;;;;;13.66;69.29;98171.54;113101;1195;107596;-73
2021/09/24 07:38:05;;;;;;;11.90;2.50;;;;;;;13.75;69.94;98169.13;113150;1195;97544;-73
2021/09/24 07:40:33;;;;;;;9.80;2.50;;;;;;;13.82;69.62;98170.08;113168;1195;95152;-71
2021/09/24 07:43:05;;;;;;;16.40;2.80;;;;;;;13.96;70.13;98170.42;113246;1195;111171;-73
2021/09/24 07:45:32;;;;;;;12.70;2.60;;;;;;;14.12;69.69;98181.63;113161;1195;97509;-71
2021/09/24 07:48:00;;;;;;;11.60;2.10;;;;;;;14.20;68.22;98187.67;113127;1196;107486;-73
2021/09/24 07:50:30;;;;;;;8.20;1.80;;;;;;;14.21;68.42;98177.05;113205;1197;97674;-73
2021/09/24 07:53:00;;;;;;;14.20;2.50;;;;;;;14.23;68.25;98180.69;113418;1194;99068;-72
2021/09/24 07:55:32;;;;;;;11.60;2.80;;;;;;;14.30;68.71;98183.56;113352;1195;111324;-73
2021/09/24 07:58:00;;;;;;;8.30;2.10;;;;;;;14.41;68.29;98182.46;113399;1195;95669;-72
2021/09/24 08:00:31;;;;;;;15.30;2.20;;;;;;;14.50;67.62;98175.29;113170;1195;107551;-72
2021/09/24 08:03:00;;;;;;;12.00;2.20;;;;;;;14.50;68.09;98179.26;113164;1195;95767;-70
2021/09/24 08:05:33;;;;;;;12.70;2.90;;;;;;;14.53;68.71;98173.56;113354;1195;97668;-73
2021/09/24 08:08:01;;;;;;;10.50;2.60;;;;;;;14.57;68.99;98183.52;113389;1187;111684;-72
2021/09/24 08:10:29;;;;;;;11.10;2.70;;;;;;;14.62;68.65;98185.52;113225;1195;97662;-72
2021/09/24 08:12:59;;;;;;;8.30;2.20;;;;;;;14.61;68.97;98185.23;113212;1195;106328;-73
2021/09/24 08:15:29;;;;;;;15.40;2.30;;;;;;;14.63;68.31;98187.17;113175;1196;97674;-73
2021/09/24 08:17:58;;;;;;;11.80;2.70;;;;;;;14.56;67.26;98187.40;113181;1195;97661;-73
2021/09/24 08:20:26;;;;;;;12.30;2.60;;;;;;;14.43;67.74;98199.39;113173;1195;111142;-74
2021/09/24 08:22:54;;;;;;;11.70;2.70;;;;;;;14.32;67.38;98203.03;113192;1196;97662;-73
2021/09/24 08:25:22;;;;;;;10.10;2.40;;;;;;;14.25;67.80;98199.95;113157;1196;107109;-72
2021/09/24 08:27:50;;;;;;;9.20;2.10;;;;;;;14.19;67.47;98200.58;113133;1196;97586;-74
2021/09/24 08:30:23;;;;;;;8.80;2.00;;;;;;;14.12;67.80;98205.21;113230;1195;97668;-74
2021/09/24 08:32:59;;;;;;;13.40;2.10;;;;;;;14.04;67.44;98205.25;113165;1195;111196;-73
2021/09/24 08:35:30;;;;;;;10.60;1.90;;;;;;;13.91;65.48;98222.41;112854;1196;97887;-73
2021/09/24 08:38:00;;;;;;;12.90;2.50;;;;;;;13.80;66.67;98229.23;113189;1195;107513;-73
2021/09/24 08:40:31;;;;;;;16.20;2.70;;;;;;;13.72;66.21;98234.70;113177;1195;97682;-73
2021/09/24 08:43:02;;;;;;;10.80;1.90;;;;;;;13.66;66.91;98236.80;113159;1195;97601;-74
2021/09/24 08:45:33;;;;;;;13.60;2.40;;;;;;;13.63;66.95;98235.33;113177;1195;111142;-74
2021/09/24 08:48:06;;;;;;;12.70;2.60;;;;;;;13.62;67.23;98241.14;113304;1195;96623;-73
2021/09/24 08:50:38;;;;;;;11.10;2.40;;;;;;;13.61;66.14;98246.76;113189;1196;107546;-73
2021/09/24 08:53:11;;;;;;;13.90;2.20;;;;;;;13.57;66.90;98244.09;113262;1195;97569;-72
2021/09/24 08:55:42;;;;;;;8.90;1.70;;;;;;;13.55;66.65;98245.00;113154;1195;98374;-75
2021/09/24 08:58:13;;;;;;;10.40;2.70;;;;;;;13.53;66.70;98253.25;113150;1195;111161;-73
2021/09/24 09:00:43;;;;;;;13.00;2.00;;;;;;;13.53;66.42;98254.29;113197;1195;95547;-73
2021/09/24 09:03:15;;;;;;;14.20;2.20;;;;;;;13.50;66.54;98258.70;113222;1194;108950;-72
2021/09/24 09:05:45;;;;;;;7.40;2.20;;;;;;;13.47;66.46;98251.67;112797;1196;96106;-73
2021/09/24 09:08:31;;;;;;;11.60;2.30;;;;;;;13.45;66.60;98259.07;112932;1196;95170;-73
2021/09/24 09:11:18;;;;;;;7.70;1.80;;;;;;;13.43;66.27;98264.23;114082;1194;111154;-71
2021/09/24 09:13:53;;;;;;;10.00;2.00;;;;;;;13.40;66.18;98261.77;113113;1195;95002;-72
2021/09/24 09:16:35;;;;;;;12.20;2.10;;;;;;;13.40;65.89;98267.27;113104;1196;107632;-73
2021/09/24 09:19:12;;;;;;;11.40;2.00;;;;;;;13.36;65.66;98275.88;112852;1196;97612;-72
2021/09/24 09:21:44;;;;;;;10.10;1.70;;;;;;;13.32;65.49;98273.35;113094;1195;97688;-71
2021/09/24 09:24:24;;;;;;;10.00;2.10;;;;;;;13.28;66.01;98280.91;113139;1195;111284;-73
2021/09/24 09:27:16;;;;;;;10.70;2.60;;;;;;;13.27;65.80;98281.01;113151;1195;98199;-73
2021/09/24 09:30:04;;;;;;;7.40;1.70;;;;;;;13.23;65.99;98294.31;113141;1195;108448;-73
2021/09/24 09:32:32;;;;;;;13.70;2.60;;;;;;;13.19;65.89;98289.94;113142;1195;96079;-73
2021/09/24 09:35:03;;;;;;;9.50;1.90;;;;;;;13.16;65.82;98292.20;113183;1195;95942;-72
2021/09/24 09:37:36;;;;;;;9.10;2.00;;;;;;;13.16;66.08;98293.27;113109;1195;111013;-73
2021/09/24 09:40:04;;;;;;;11.70;1.80;;;;;;;13.19;66.13;98293.86;113125;1196;97976;-74
2021/09/24 09:42:38;;;;;;;12.80;2.70;;;;;;;13.22;65.87;98295.70;113131;1195;107361;-73
2021/09/24 09:45:11;;;;;;;15.90;2.20;;;;;;;13.25;65.94;98299.68;113175;1195;97652;-73
2021/09/24 09:47:44;;;;;;;10.60;2.30;;;;;;;13.27;66.01;98296.30;113195;1195;94984;-72
2021/09/24 09:50:22;;;;;;;11.40;2.60;;;;;;;13.29;65.56;98308.23;113270;1195;110446;-72
2021/09/24 09:53:07;;;;;;;10.60;2.20;;;;;;;13.28;65.61;98304.58;113137;1195;97507;-72
2021/09/24 09:55:38;;;;;;;12.80;2.40;;;;;;;13.30;65.87;98303.52;113092;1195;107565;-73
2021/09/24 09:58:11;;;;;;;11.60;2.10;;;;;;;13.30;65.40;98313.69;113164;1187;97598;-72
2021/09/24 10:00:53;;;;;;;11.50;2.30;;;;;;;13.28;65.86;98312.04;113156;1195;95182;-73
2021/09/24 10:03:43;;;;;;;7.60;2.40;;;;;;;13.29;65.79;98313.61;113129;1195;111293;-75
2021/09/24 10:06:19;;;;;;;13.10;2.10;;;;;;;13.26;65.69;98315.82;113269;1195;95154;-73
2021/09/24 10:09:01;;;;;;;9.90;2.60;;;;;;;13.24;65.68;98312.46;113177;1195;106284;-73
2021/09/24 10:11:40;;;;;;;13.80;3.00;;;;;;;13.23;65.58;98314.52;113148;1195;97689;-73
2021/09/24 10:14:14;;;;;;;15.50;2.70;;;;;;;13.21;65.57;98316.46;113021;1196;97634;-73
2021/09/24 10:16:47;;;;;;;11.60;2.60;;;;;;;13.19;65.61;98312.20;113053;1195;111208;-73
2021/09/24 10:19:18;;;;;;;16.20;2.40;;;;;;;13.19;65.67;98310.92;113209;1195;97608;-73
2021/09/24 10:21:55;;;;;;;12.00;2.20;;;;;;;13.20;65.68;98313.94;113160;1195;107637;-72
2021/09/24 10:24:23;;;;;;;13.00;2.90;;;;;;;13.19;65.70;98324.65;113190;1195;97546;-72
2021/09/24 10:27:02;;;;;;;13.00;3.10;;;;;;;13.18;65.61;98325.15;113175;1196;97636;-72
2021/09/24 10:29:35;;;;;;;12.90;2.40;;;;;;;13.19;65.70;98327.17;113149;1195;110719;-74
2021/09/24 10:32:24;;;;;;;17.50;2.80;;;;;;;13.19;65.62;98330.02;113209;1195;97560;-72
2021/09/24 10:35:04;;;;;;;14.50;2.70;;;;;;;13.18;65.69;98333.15;113087;1195;107549;-74
2021/09/24 10:38:08;;;;;;;8.20;2.10;;;;;;;13.22;65.75;98327.55;113164;1195;98030;-74
2021/09/24 10:40:51;;;;;;;12.50;2.90;;;;;;;13.31;65.57;98326.59;113123;1195;97526;-74
2021/09/24 10:43:20;;;;;;;12.60;3.00;;;;;;;13.36;65.48;98320.88;112863;1196;111126;-74
2021/09/24 10:45:48;;;;;;;14.80;2.90;;;;;;;13.46;65.59;98325.00;113132;1195;97643;-75
2021/09/24 10:48:24;;;;;;;11.70;2.50;;;;;;;13.56;65.53;98325.80;113248;1195;107562;-75
2021/09/24 10:51:06;;;;;;;11.30;3.10;;;;;;;13.67;65.47;98324.23;112938;1196;98370;-74
2021/09/24 10:53:34;;;;;;;11.60;2.90;;;;;;;13.78;65.29;98321.51;113129;1195;97640;-74
2021/09/24 10:56:02;;;;;;;14.60;2.80;;;;;;;13.87;65.30;98321.56;113297;1195;111173;-77
2021/09/24 10:58:30;;;;;;;12.20;3.50;;;;;;;13.98;65.27;98319.79;113377;1195;95556;-74
2021/09/24 11:00:58;;;;;;;12.30;2.50;;;;;;;14.09;65.43;98314.89;113296;1195;107534;-75
2021/09/24 11:03:29;;;;;;;16.20;2.90;;;;;;;14.20;64.88;98322.84;113267;1195;97504;-73
2021/09/24 11:06:03;;;;;;;13.80;3.30;;;;;;;14.20;64.57;98326.90;112945;1195;97533;-74
2021/09/24 11:08:33;;;;;;;16.70;2.90;;;;;;;14.22;64.76;98323.70;113077;1195;111566;-74
2021/09/24 11:11:13;;;;;;;14.80;2.40;;;;;;;14.24;64.76;98324.05;113104;1195;96898;-74
2021/09/24 11:13:52;;;;;;;12.70;2.50;;;;;;;14.28;65.05;98326.08;113109;1195;107496;-74
2021/09/24 11:16:28;;;;;;;16.00;3.00;;;;;;;14.37;65.28;98325.87;113804;1195;95432;-74
2021/09/24 11:18:59;;;;;;;13.90;3.30;;;;;;;14.51;64.81;98330.02;113121;1196;97621;-74
2021/09/24 11:21:31;;;;;;;12.20;2.20;;;;;;;14.60;64.94;98328.40;112658;1196;111295;-75
2021/09/24 11:24:11;;;;;;;20.70;3.20;;;;;;;14.68;64.41;98330.33;113813;1196;97556;-75
2021/09/24 11:26:53;;;;;;;11.50;2.80;;;;;;;14.72;64.54;98328.67;114861;1195;107637;-75
2021/09/24 11:29:27;;;;;;;5.50;1.90;;;;;;;14.72;64.09;98325.05;114856;1195;95658;-73
2021/09/24 11:31:55;;;;;;;9.70;2.30;;;;;;;14.71;63.43;98324.67;114893;1195;95686;-74